Time;durP1;ratioP1;P1;durP2;ratioP2;P2;SDS_P1;SDS_P2;PMS_P1;PMS_P2;Temp;Humidity;BMP_temperature;BMP_pressure;BME280_temperature;BME280_humidity;BME280_pressure;Samples;Min_cycle;Max_cycle;Signal;HPM_P1;HPM_P2
2022/04/02 00:01:59;;;;;;;6.00;5.43;;;3.20;99.90;;;;;;5036094;28;20238;-86
2022/04/02 00:04:28;;;;;;;5.97;5.47;;;3.10;99.90;;;;;;5036028;28;20206;-84
2022/04/02 00:06:58;;;;;;;6.60;5.93;;;3.10;99.90;;;;;;5035383;28;20325;-85
2022/04/02 00:09:26;;;;;;;5.53;5.07;;;3.20;99.90;;;;;;5036180;28;20211;-85
2022/04/02 00:11:55;;;;;;;5.47;5.05;;;3.20;99.90;;;;;;5035613;28;20286;-84
2022/04/02 00:14:23;;;;;;;5.15;4.75;;;3.20;99.90;;;;;;5035425;28;20237;-84
2022/04/02 00:16:52;;;;;;;6.25;5.72;;;3.10;99.90;;;;;;5035919;28;20229;-85
2022/04/02 00:19:21;;;;;;;5.93;5.43;;;3.10;99.90;;;;;;5035689;28;20206;-85
2022/04/02 00:21:49;;;;;;;7.20;6.28;;;3.10;99.90;;;;;;5035516;28;20250;-84
2022/04/02 00:24:19;;;;;;;6.18;5.68;;;3.10;99.90;;;;;;5035612;28;20266;-87
2022/04/02 00:26:48;;;;;;;6.30;5.70;;;3.10;99.90;;;;;;5035238;28;20222;-86
2022/04/02 00:29:16;;;;;;;5.45;4.97;;;3.10;99.90;;;;;;5035143;28;20226;-86
2022/04/02 00:31:45;;;;;;;6.18;5.60;;;3.10;99.90;;;;;;5035369;28;20223;-86
2022/04/02 00:34:14;;;;;;;6.95;6.30;;;3.10;99.90;;;;;;5035763;28;20298;-86
2022/04/02 00:36:42;;;;;;;6.45;5.95;;;3.10;99.90;;;;;;5036040;28;20203;-86
2022/04/02 00:39:10;;;;;;;7.63;6.40;;;3.00;99.90;;;;;;5035254;28;20241;-86
2022/04/02 00:41:40;;;;;;;8.25;6.72;;;3.10;99.90;;;;;;5034982;28;20310;-86
2022/04/02 00:44:12;;;;;;;5.88;5.38;;;3.10;99.90;;;;;;5035252;28;20241;-86
2022/04/02 00:46:41;;;;;;;6.97;6.28;;;3.10;99.90;;;;;;5035238;28;20317;-86
2022/04/02 00:49:11;;;;;;;6.47;5.97;;;3.10;99.90;;;;;;5035065;28;20259;-86
2022/04/02 00:51:42;;;;;;;7.72;6.78;;;3.10;99.90;;;;;;5035117;28;20234;-86
2022/04/02 00:54:14;;;;;;;9.10;7.30;;;3.10;99.90;;;;;;5035248;28;20208;-86
2022/04/02 00:56:44;;;;;;;5.80;5.30;;;3.10;99.90;;;;;;5034881;28;20226;-86
2022/04/02 00:59:13;;;;;;;7.97;6.90;;;3.10;99.90;;;;;;5035203;28;20234;-87
2022/04/02 01:01:44;;;;;;;8.90;6.60;;;3.00;99.90;;;;;;5035018;28;20309;-86
2022/04/02 01:04:13;;;;;;;10.57;8.63;;;3.00;99.90;;;;;;5035154;28;20202;-87
2022/04/02 01:06:42;;;;;;;7.80;7.13;;;3.10;99.90;;;;;;5034382;28;20242;-86
2022/04/02 01:09:11;;;;;;;9.32;8.43;;;3.00;99.90;;;;;;5034829;28;20272;-86
2022/04/02 01:11:41;;;;;;;11.15;8.45;;;3.00;99.90;;;;;;5034579;28;20254;-87
2022/04/02 01:14:12;;;;;;;7.75;6.95;;;3.10;99.90;;;;;;5034859;28;20214;-86
2022/04/02 01:16:40;;;;;;;7.25;6.57;;;3.10;99.90;;;;;;5034833;28;20203;-86
2022/04/02 01:19:09;;;;;;;7.25;6.55;;;3.10;99.90;;;;;;5034895;28;20210;-87
2022/04/02 01:21:37;;;;;;;7.45;6.82;;;3.10;99.90;;;;;;5034478;28;20297;-86
2022/04/02 01:24:08;;;;;;;7.30;6.60;;;3.10;99.90;;;;;;5035394;28;20293;-86
2022/04/02 01:26:36;;;;;;;8.45;7.65;;;3.00;99.90;;;;;;5034493;28;20274;-86
2022/04/02 01:29:06;;;;;;;8.05;6.88;;;3.10;99.90;;;;;;5034552;28;20230;-87
2022/04/02 01:31:35;;;;;;;6.72;6.18;;;3.10;99.90;;;;;;5034544;28;20245;-87
2022/04/02 01:34:04;;;;;;;7.32;6.63;;;3.10;99.90;;;;;;5034102;28;20211;-86
2022/04/02 01:36:44;;;;;;;7.88;7.07;;;3.10;99.90;;;;;;5034597;28;20254;-86
2022/04/02 01:39:14;;;;;;;8.23;7.30;;;3.10;99.90;;;;;;5034524;28;20293;-86
2022/04/02 01:41:43;;;;;;;6.50;5.90;;;3.20;99.90;;;;;;5034668;28;20253;-86
2022/04/02 01:44:11;;;;;;;7.18;6.55;;;3.20;99.90;;;;;;5034472;28;20214;-86
2022/04/02 01:46:39;;;;;;;7.43;6.70;;;3.20;99.90;;;;;;5033989;28;20230;-86
2022/04/02 01:49:08;;;;;;;8.10;7.38;;;3.20;99.90;;;;;;5034187;28;20249;-86
2022/04/02 01:51:36;;;;;;;10.05;7.25;;;3.20;99.90;;;;;;5033787;28;20246;-87
2022/04/02 01:54:05;;;;;;;7.97;7.15;;;3.20;99.90;;;;;;5034464;28;20233;-84
2022/04/02 01:56:34;;;;;;;8.15;7.38;;;3.20;99.90;;;;;;5034057;28;20245;-84
2022/04/02 01:59:03;;;;;;;7.97;7.22;;;3.20;99.90;;;;;;5033813;28;20206;-85
2022/04/02 02:01:31;;;;;;;8.05;7.35;;;3.20;99.90;;;;;;5033724;28;20310;-84
2022/04/02 02:04:00;;;;;;;9.88;7.78;;;3.20;99.90;;;;;;5033916;28;20202;-85
2022/04/02 02:06:29;;;;;;;8.27;7.57;;;3.20;99.90;;;;;;5033340;28;20214;-84
2022/04/02 02:08:57;;;;;;;8.38;7.55;;;3.20;99.90;;;;;;5033975;28;20245;-84
2022/04/02 02:11:26;;;;;;;7.32;6.63;;;3.20;99.90;;;;;;5033134;28;20293;-84
2022/04/02 02:13:55;;;;;;;8.07;7.38;;;3.20;99.90;;;;;;5033585;28;20289;-85
2022/04/02 02:16:24;;;;;;;11.15;7.10;;;3.20;99.90;;;;;;5033642;28;20207;-86
2022/04/02 02:18:52;;;;;;;8.52;7.57;;;3.20;99.90;;;;;;5033652;28;20203;-86
2022/04/02 02:21:21;;;;;;;7.32;6.72;;;3.20;99.90;;;;;;5032938;28;20294;-86
2022/04/02 02:23:49;;;;;;;7.65;6.90;;;3.10;99.90;;;;;;5033647;28;20214;-86
2022/04/02 02:26:18;;;;;;;8.18;7.00;;;3.10;99.90;;;;;;5033681;28;20236;-87
2022/04/02 02:28:48;;;;;;;6.65;6.13;;;3.10;99.90;;;;;;5032923;28;20257;-86
2022/04/02 02:31:18;;;;;;;8.38;7.55;;;3.00;99.90;;;;;;5033419;28;20214;-86
2022/04/02 02:36:32;;;;;;;8.32;7.57;;;2.90;99.90;;;;;;5033282;28;20206;-86
2022/04/02 02:39:01;;;;;;;6.78;6.18;;;3.00;99.90;;;;;;5033111;28;20293;-84
2022/04/02 02:41:29;;;;;;;8.75;6.95;;;3.00;99.90;;;;;;5032984;28;20219;-85
2022/04/02 02:43:58;;;;;;;7.68;6.97;;;3.00;99.90;;;;;;5033095;28;20222;-84
2022/04/02 02:46:27;;;;;;;8.13;7.18;;;3.00;99.90;;;;;;5033096;28;20285;-84
2022/04/02 02:48:56;;;;;;;9.20;8.13;;;3.10;99.90;;;;;;5032419;28;20309;-84
2022/04/02 02:51:24;;;;;;;6.57;6.07;;;3.10;99.90;;;;;;5032718;28;20260;-84
2022/04/02 02:53:52;;;;;;;8.82;7.18;;;3.10;99.90;;;;;;5032857;28;20206;-87
2022/04/02 02:56:21;;;;;;;15.18;7.75;;;3.00;99.90;;;;;;5033204;28;20234;-86
2022/04/02 02:58:49;;;;;;;8.00;7.20;;;3.10;99.90;;;;;;5032595;28;20298;-86
2022/04/02 03:01:18;;;;;;;10.38;6.60;;;3.10;99.90;;;;;;5032371;28;20289;-86
2022/04/02 03:03:48;;;;;;;6.82;6.22;;;3.00;99.90;;;;;;5032769;28;20209;-86
2022/04/02 03:06:16;;;;;;;6.22;5.63;;;3.00;99.90;;;;;;5032628;28;20253;-86
2022/04/02 03:08:45;;;;;;;7.43;6.72;;;3.10;99.90;;;;;;5032293;28;20242;-86
2022/04/02 03:11:13;;;;;;;13.50;7.22;;;3.10;99.90;;;;;;5032396;28;20210;-86
2022/04/02 03:13:41;;;;;;;6.25;5.75;;;3.10;99.90;;;;;;5032791;28;20293;-86
2022/04/02 03:16:10;;;;;;;6.82;6.20;;;3.00;99.90;;;;;;5032916;28;20237;-86
2022/04/02 03:18:38;;;;;;;6.10;5.60;;;3.00;99.90;;;;;;5031961;28;20268;-86
2022/04/02 03:21:08;;;;;;;5.72;5.25;;;3.00;99.90;;;;;;5032030;28;20207;-86
2022/04/02 03:23:37;;;;;;;5.60;5.18;;;3.00;99.90;;;;;;5032117;28;20226;-86
2022/04/02 03:26:05;;;;;;;6.57;6.00;;;3.00;99.90;;;;;;5032564;28;20216;-86
2022/04/02 03:28:34;;;;;;;6.28;5.72;;;3.00;99.90;;;;;;5032023;28;20361;-86
2022/04/02 03:31:03;;;;;;;5.43;4.95;;;3.00;99.90;;;;;;5032390;28;20233;-86
2022/04/02 03:33:32;;;;;;;8.07;6.45;;;3.00;99.90;;;;;;5032462;28;20209;-87
2022/04/02 03:36:00;;;;;;;6.60;6.00;;;3.00;99.90;;;;;;5032131;28;20210;-87
2022/04/02 03:38:31;;;;;;;6.53;5.53;;;3.00;99.90;;;;;;5032365;28;20277;-86
2022/04/02 03:40:59;;;;;;;5.88;5.45;;;3.00;99.90;;;;;;5032204;28;20206;-87
2022/04/02 03:43:27;;;;;;;6.35;5.00;;;3.00;99.90;;;;;;5032216;28;20262;-86
2022/04/02 03:47:07;;;;;;;7.43;5.20;;;3.00;99.90;;;;;;5032442;28;20225;-86
2022/04/02 03:48:44;;;;;;;5.25;4.80;;;3.00;99.90;;;;;;5032426;28;20224;-86
2022/04/02 03:51:13;;;;;;;5.68;5.15;;;3.00;99.90;;;;;;5031864;28;20237;-86
2022/04/02 03:53:48;;;;;;;8.88;5.20;;;3.00;99.90;;;;;;5032040;28;20207;-86
2022/04/02 03:56:16;;;;;;;7.20;5.78;;;3.10;99.90;;;;;;5031897;28;20265;-86
2022/04/02 03:58:44;;;;;;;5.68;5.18;;;3.10;99.90;;;;;;5032245;28;20253;-86
2022/04/02 04:01:13;;;;;;;8.07;5.85;;;3.10;99.90;;;;;;5031751;28;20260;-86
2022/04/02 04:03:41;;;;;;;5.07;4.63;;;3.00;99.90;;;;;;5032204;28;20296;-86
2022/04/02 04:06:09;;;;;;;5.55;5.05;;;3.10;99.90;;;;;;5032092;28;20209;-86
2022/04/02 04:08:39;;;;;;;5.68;5.25;;;3.10;99.90;;;;;;5031586;28;20275;-86
2022/04/02 04:11:09;;;;;;;5.85;5.35;;;3.00;99.90;;;;;;5031695;28;20206;-86
2022/04/02 04:13:38;;;;;;;7.68;5.70;;;3.10;99.90;;;;;;5032327;28;20206;-86
2022/04/02 04:16:06;;;;;;;5.97;5.47;;;3.10;99.90;;;;;;5032082;28;20359;-87
2022/04/02 04:18:36;;;;;;;6.97;6.28;;;3.10;99.90;;;;;;5031959;28;20198;-86
2022/04/02 04:21:04;;;;;;;5.65;5.15;;;3.10;99.90;;;;;;5031485;28;20203;-86
2022/04/02 04:23:34;;;;;;;6.10;5.57;;;3.10;99.90;;;;;;5031810;28;20298;-86
2022/04/02 04:26:03;;;;;;;5.60;5.10;;;3.10;99.90;;;;;;5032206;28;20234;-86
2022/04/02 04:28:33;;;;;;;5.55;5.10;;;3.10;99.90;;;;;;5031804;28;20344;-86
2022/04/02 04:31:02;;;;;;;7.78;5.47;;;3.10;99.90;;;;;;5035554;28;20438;-87
2022/04/02 04:33:31;;;;;;;4.90;4.47;;;3.10;99.90;;;;;;5035507;28;20210;-86
2022/04/02 04:35:59;;;;;;;7.80;5.95;;;3.10;99.90;;;;;;5035360;28;20202;-86
2022/04/02 04:38:27;;;;;;;5.50;5.03;;;3.10;99.90;;;;;;5035953;28;20270;-86
2022/04/02 04:40:56;;;;;;;6.00;5.45;;;3.10;99.90;;;;;;5035558;28;20297;-86
2022/04/02 04:43:24;;;;;;;5.90;5.30;;;3.00;99.90;;;;;;5035376;28;20317;-86
2022/04/02 04:45:54;;;;;;;5.80;5.28;;;3.10;99.90;;;;;;5034844;28;20234;-86
2022/04/02 04:48:22;;;;;;;6.50;5.93;;;3.10;99.90;;;;;;5034789;28;20290;-87
2022/04/02 04:50:51;;;;;;;5.38;4.95;;;3.20;99.90;;;;;;5034787;28;20244;-86
2022/04/02 04:53:19;;;;;;;6.40;5.78;;;3.10;99.90;;;;;;5035619;28;20250;-86
2022/04/02 04:55:48;;;;;;;10.75;5.43;;;3.10;99.90;;;;;;5035160;28;20217;-86
2022/04/02 04:58:16;;;;;;;7.93;6.28;;;3.10;99.90;;;;;;5035027;28;20325;-86
2022/04/02 05:00:45;;;;;;;5.82;5.32;;;3.20;99.90;;;;;;5034710;28;20230;-86
2022/04/02 05:03:14;;;;;;;6.78;5.97;;;3.20;99.90;;;;;;5034831;28;20309;-86
2022/04/02 05:05:44;;;;;;;6.53;5.82;;;3.20;99.90;;;;;;5035531;28;20228;-86
2022/04/02 05:08:12;;;;;;;5.07;4.68;;;3.10;99.90;;;;;;5035005;28;20210;-86
2022/04/02 05:10:41;;;;;;;5.85;5.25;;;3.10;99.90;;;;;;5034668;28;20234;-86
2022/04/02 05:13:12;;;;;;;6.40;5.80;;;3.20;99.90;;;;;;5034845;28;20226;-86
2022/04/02 05:15:42;;;;;;;7.50;6.30;;;3.20;99.90;;;;;;5034718;28;20198;-86
2022/04/02 05:18:11;;;;;;;7.72;6.85;;;3.10;99.90;;;;;;5035135;28;20206;-86
2022/04/02 05:20:41;;;;;;;6.65;6.00;;;3.20;99.90;;;;;;5034253;28;20291;-86
2022/04/02 05:23:11;;;;;;;5.53;5.03;;;3.20;99.90;;;;;;5035365;28;20290;-86
2022/04/02 05:25:40;;;;;;;5.53;5.03;;;3.20;99.90;;;;;;5034413;28;20206;-86
2022/04/02 05:28:09;;;;;;;10.55;5.07;;;3.20;99.90;;;;;;5034209;28;20215;-86
2022/04/02 05:30:39;;;;;;;5.88;5.35;;;3.20;99.90;;;;;;5034615;28;20209;-86
2022/04/02 05:33:08;;;;;;;6.32;5.55;;;3.20;99.90;;;;;;5034668;28;20242;-86
2022/04/02 05:35:58;;;;;;;6.88;6.03;;;3.30;99.90;;;;;;5034380;28;20203;-86
2022/04/02 05:38:27;;;;;;;6.45;5.85;;;3.30;99.90;;;;;;5034224;28;20270;-86
2022/04/02 05:40:55;;;;;;;6.72;5.90;;;3.40;99.90;;;;;;5033623;28;20222;-86
2022/04/02 05:43:23;;;;;;;6.90;6.20;;;3.40;99.90;;;;;;5034280;28;20246;-86
2022/04/02 05:45:52;;;;;;;6.18;5.63;;;3.50;99.90;;;;;;5034334;28;20285;-86
2022/04/02 05:48:21;;;;;;;5.65;5.18;;;3.50;99.90;;;;;;5034569;28;20266;-86
2022/04/02 05:50:49;;;;;;;5.88;5.35;;;3.50;99.90;;;;;;5033730;28;20238;-86
2022/04/02 05:53:19;;;;;;;5.40;4.90;;;3.50;99.90;;;;;;5033923;28;20305;-86
2022/04/02 05:55:48;;;;;;;6.03;5.45;;;3.50;99.90;;;;;;5033904;28;20274;-86
2022/04/02 05:58:17;;;;;;;5.55;5.05;;;3.50;99.90;;;;;;5034109;28;20285;-86
2022/04/02 06:00:45;;;;;;;8.48;6.40;;;3.50;99.90;;;;;;5033681;28;20285;-86
2022/04/02 06:03:35;;;;;;;5.72;5.22;;;3.60;99.90;;;;;;5033882;28;20222;-86
2022/04/02 06:06:03;;;;;;;6.03;5.53;;;3.50;99.90;;;;;;5033515;28;20211;-85
2022/04/02 06:08:33;;;;;;;7.90;6.35;;;3.50;99.90;;;;;;5034017;28;20222;-86
2022/04/02 06:11:02;;;;;;;6.63;5.97;;;3.50;99.90;;;;;;5033691;28;20312;-86
2022/04/02 06:13:30;;;;;;;5.68;5.07;;;3.50;99.90;;;;;;5033761;28;20293;-86
2022/04/02 06:15:58;;;;;;;5.00;4.57;;;3.50;99.90;;;;;;5033555;28;20293;-86
2022/04/02 06:18:27;;;;;;;5.75;5.25;;;3.50;99.90;;;;;;5033712;28;20207;-86
2022/04/02 06:20:55;;;;;;;5.45;4.97;;;3.50;99.90;;;;;;5033433;28;20275;-86
2022/04/02 06:23:25;;;;;;;5.47;5.00;;;3.50;99.90;;;;;;5033536;28;20264;-86
2022/04/02 06:25:54;;;;;;;5.38;4.82;;;3.60;99.90;;;;;;5033864;28;20274;-86
2022/04/02 06:28:23;;;;;;;6.05;5.43;;;3.60;99.90;;;;;;5033244;28;20247;-86
2022/04/02 06:30:51;;;;;;;5.95;5.35;;;3.60;99.90;;;;;;5032731;28;20225;-86
2022/04/02 06:33:19;;;;;;;5.90;5.40;;;3.60;99.90;;;;;;5033080;28;20238;-86
2022/04/02 06:35:48;;;;;;;5.53;5.03;;;3.60;99.90;;;;;;5033631;28;20293;-86
2022/04/02 06:38:16;;;;;;;7.40;6.15;;;3.70;99.90;;;;;;5033344;28;20206;-86
2022/04/02 06:40:45;;;;;;;6.40;5.85;;;3.70;99.90;;;;;;5032829;28;20293;-86
2022/04/02 06:43:15;;;;;;;5.72;5.03;;;3.70;99.90;;;;;;5033120;28;20257;-86
2022/04/02 06:45:44;;;;;;;6.43;5.93;;;3.70;99.90;;;;;;5033199;28;20202;-86
2022/04/02 06:48:13;;;;;;;6.57;5.35;;;3.80;99.90;;;;;;5033224;28;20226;-85
2022/04/02 06:50:43;;;;;;;10.60;6.65;;;3.70;99.90;;;;;;5032298;28;20254;-86
2022/04/02 06:53:11;;;;;;;7.78;5.68;;;3.70;99.90;;;;;;5033030;28;20321;-85
2022/04/02 06:55:40;;;;;;;5.28;4.80;;;3.80;99.90;;;;;;5033089;28;20229;-85
2022/04/02 06:58:15;;;;;;;7.97;5.97;;;3.80;99.90;;;;;;5032680;28;20298;-85
2022/04/02 07:00:45;;;;;;;7.28;5.82;;;3.80;99.90;;;;;;5032708;28;20284;-85
2022/04/02 07:03:13;;;;;;;9.38;5.90;;;3.90;99.90;;;;;;5032766;28;20314;-85
2022/04/02 07:05:42;;;;;;;6.38;5.72;;;3.90;99.90;;;;;;5032310;28;20213;-85
2022/04/02 07:08:10;;;;;;;8.27;6.28;;;3.90;99.90;;;;;;5032611;28;20301;-85
2022/04/02 07:10:39;;;;;;;6.90;6.20;;;4.00;99.90;;;;;;5032190;28;20290;-86
2022/04/02 07:13:07;;;;;;;5.90;5.30;;;4.00;99.90;;;;;;5032525;28;20313;-85
2022/04/02 07:15:35;;;;;;;6.07;5.38;;;4.00;99.90;;;;;;5033226;28;20294;-85
2022/04/02 07:18:09;;;;;;;7.13;6.40;;;4.00;99.90;;;;;;5032739;28;20257;-86
2022/04/02 07:20:40;;;;;;;6.75;6.07;;;3.90;99.90;;;;;;5032537;28;20198;-85
2022/04/02 07:23:10;;;;;;;6.05;5.55;;;3.90;99.90;;;;;;5032438;28;20230;-85
2022/04/02 07:25:40;;;;;;;6.57;6.00;;;4.00;99.90;;;;;;5032265;28;20211;-86
2022/04/02 07:28:09;;;;;;;5.43;4.93;;;4.00;99.90;;;;;;5032967;28;20269;-85
2022/04/02 07:30:39;;;;;;;5.60;5.10;;;4.10;99.90;;;;;;5032305;28;20241;-85
2022/04/02 07:33:09;;;;;;;7.75;5.95;;;4.30;99.90;;;;;;5032087;28;20313;-85
2022/04/02 07:35:43;;;;;;;10.77;6.80;;;4.30;99.90;;;;;;5032488;28;20206;-85
2022/04/02 07:38:17;;;;;;;7.10;6.25;;;4.40;99.90;;;;;;5032291;28;20226;-86
2022/04/02 07:40:51;;;;;;;6.22;5.75;;;4.50;99.90;;;;;;5031966;28;20271;-86
2022/04/02 07:43:32;;;;;;;6.63;5.80;;;4.60;99.90;;;;;;5032487;28;20275;-86
2022/04/02 07:46:06;;;;;;;7.35;6.63;;;4.80;99.90;;;;;;5032816;28;20264;-85
2022/04/02 07:48:38;;;;;;;8.95;6.53;;;4.90;99.90;;;;;;5032269;28;20198;-86
2022/04/02 07:51:11;;;;;;;6.38;5.80;;;5.00;99.90;;;;;;5031659;28;20254;-85
2022/04/02 07:53:44;;;;;;;6.95;6.20;;;5.10;99.90;;;;;;5032463;28;20214;-86
2022/04/02 07:56:16;;;;;;;8.45;6.93;;;4.90;99.90;;;;;;5032393;28;20207;-86
2022/04/02 07:58:47;;;;;;;6.05;5.47;;;5.00;99.90;;;;;;5032154;28;20293;-85
2022/04/02 08:01:19;;;;;;;5.80;5.30;;;5.00;99.90;;;;;;5031774;28;20206;-85
2022/04/02 08:03:49;;;;;;;6.05;5.47;;;5.00;99.90;;;;;;5032832;28;20260;-85
2022/04/02 08:06:17;;;;;;;7.43;5.43;;;5.00;99.90;;;;;;5036224;28;20237;-85
2022/04/02 08:08:47;;;;;;;11.43;5.72;;;5.00;99.90;;;;;;5036171;28;20207;-86
2022/04/02 08:11:18;;;;;;;8.82;6.43;;;5.00;99.90;;;;;;5035525;28;20308;-85
2022/04/02 08:13:47;;;;;;;6.68;6.07;;;4.80;99.90;;;;;;5035871;28;20210;-86
2022/04/02 08:16:16;;;;;;;6.45;5.90;;;4.90;99.90;;;;;;5035984;28;20237;-85
2022/04/02 08:18:46;;;;;;;8.02;6.90;;;4.90;99.90;;;;;;5035995;28;20214;-85
2022/04/02 08:21:20;;;;;;;6.45;5.85;;;5.00;99.90;;;;;;5036006;28;20195;-85
2022/04/02 08:23:48;;;;;;;7.60;5.68;;;5.00;99.90;;;;;;5035512;28;20270;-85
2022/04/02 08:26:25;;;;;;;10.25;7.07;;;5.00;99.90;;;;;;5035447;28;20202;-85
2022/04/02 08:29:07;;;;;;;8.10;7.40;;;5.00;99.90;;;;;;5035761;28;20202;-86
2022/04/02 08:31:56;;;;;;;5.43;4.93;;;5.10;99.90;;;;;;5035303;28;20254;-85
2022/04/02 08:34:37;;;;;;;9.43;5.72;;;5.20;99.90;;;;;;5035674;28;20206;-85
2022/04/02 08:37:16;;;;;;;6.68;5.97;;;5.30;99.90;;;;;;5035844;28;20261;-85
2022/04/02 08:39:55;;;;;;;8.05;5.72;;;5.20;99.90;;;;;;5035306;28;20274;-86
2022/04/02 08:43:02;;;;;;;7.65;6.80;;;5.30;99.90;;;;;;5034861;28;20253;-86
2022/04/02 08:45:32;;;;;;;6.35;5.22;;;5.40;99.90;;;;;;5035331;28;20241;-85
2022/04/02 08:48:25;;;;;;;6.97;5.93;;;5.40;99.90;;;;;;5035811;28;20241;-85
2022/04/02 08:51:13;;;;;;;6.10;5.47;;;5.50;99.90;;;;;;5015786;28;20295;-86
2022/04/02 08:53:51;;;;;;;6.35;5.57;;;5.60;99.90;;;;;;5035360;28;20217;-86
2022/04/02 08:56:24;;;;;;;7.70;6.05;;;5.70;99.90;;;;;;5035309;28;20269;-85
2022/04/02 08:59:04;;;;;;;5.95;5.35;;;5.90;99.90;;;;;;5035238;28;20210;-85
2022/04/02 09:01:58;;;;;;;6.45;5.28;;;5.90;99.90;;;;;;5034724;28;20245;-85
2022/04/02 09:04:58;;;;;;;6.75;6.05;;;5.70;99.90;;;;;;5035184;28;20365;-85
2022/04/02 09:08:05;;;;;;;6.38;5.78;;;5.60;99.90;;;;;;5035018;28;20289;-85
2022/04/02 09:11:02;;;;;;;5.47;4.88;;;5.50;99.90;;;;;;5034690;28;20249;-85
2022/04/02 09:14:03;;;;;;;5.60;5.05;;;5.40;99.90;;;;;;5035153;28;20237;-85
2022/04/02 09:16:37;;;;;;;5.47;4.95;;;5.30;99.90;;;;;;5033495;28;20294;-85
2022/04/02 09:19:26;;;;;;;5.68;5.18;;;5.30;99.90;;;;;;5034823;28;20213;-85
2022/04/02 09:22:06;;;;;;;9.88;5.18;;;5.40;99.90;;;;;;5034732;28;20318;-84
2022/04/02 09:25:04;;;;;;;6.50;5.63;;;5.50;99.90;;;;;;5034865;28;20202;-85
2022/04/02 09:27:59;;;;;;;7.72;5.30;;;5.50;99.90;;;;;;5034820;28;20202;-85
2022/04/02 09:30:54;;;;;;;10.13;7.10;;;5.50;99.90;;;;;;5018797;28;20318;-85
2022/04/02 09:33:46;;;;;;;4.50;4.10;;;5.50;99.90;;;;;;5031294;28;20257;-85
2022/04/02 09:36:28;;;;;;;6.13;5.13;;;5.30;99.90;;;;;;5033892;28;20206;-85
2022/04/02 09:39:04;;;;;;;7.00;5.30;;;5.30;99.90;;;;;;5034909;28;20241;-85
2022/04/02 09:42:00;;;;;;;5.57;5.07;;;5.20;99.90;;;;;;5034687;28;20226;-85
2022/04/02 09:44:59;;;;;;;6.45;5.85;;;5.20;99.90;;;;;;5027042;28;20249;-85
2022/04/02 09:47:54;;;;;;;5.55;5.05;;;5.20;99.90;;;;;;5032145;28;20206;-85
2022/04/02 09:50:24;;;;;;;5.03;4.53;;;5.30;99.90;;;;;;5021022;28;20210;-85
2022/04/02 09:52:57;;;;;;;4.95;4.55;;;5.40;99.90;;;;;;5033732;28;20250;-85
2022/04/02 09:55:29;;;;;;;6.38;5.53;;;5.50;99.90;;;;;;5034177;28;20268;-85
2022/04/02 09:58:33;;;;;;;9.10;5.70;;;5.60;99.90;;;;;;5034485;28;20279;-85
2022/04/02 10:01:06;;;;;;;6.10;5.50;;;5.50;99.90;;;;;;5030676;28;20281;-86
2022/04/02 10:03:41;;;;;;;6.88;5.65;;;5.30;99.90;;;;;;5034248;28;20220;-85
2022/04/02 10:06:25;;;;;;;5.63;5.07;;;5.30;99.90;;;;;;5033550;28;20210;-85
2022/04/02 10:09:04;;;;;;;7.55;5.70;;;5.20;99.90;;;;;;5031924;28;20271;-86
2022/04/02 10:11:34;;;;;;;9.10;6.20;;;5.20;99.90;;;;;;5033511;28;20245;-86
2022/04/02 10:14:04;;;;;;;8.90;7.10;;;5.30;99.90;;;;;;5033800;28;20202;-85
2022/04/02 10:16:35;;;;;;;7.07;5.68;;;5.50;99.90;;;;;;5033999;28;20297;-86
2022/04/02 10:19:11;;;;;;;6.40;5.75;;;5.50;99.90;;;;;;5033654;28;20203;-86
2022/04/02 10:21:40;;;;;;;9.85;5.80;;;5.60;99.90;;;;;;5033753;28;20233;-86
2022/04/02 10:24:24;;;;;;;5.43;5.03;;;5.60;99.90;;;;;;5033766;28;20199;-85
2022/04/02 10:26:55;;;;;;;5.10;4.60;;;5.60;99.90;;;;;;5033076;28;20206;-86
2022/04/02 10:29:54;;;;;;;6.80;5.43;;;5.50;99.90;;;;;;5033721;28;20207;-85
2022/04/02 10:32:53;;;;;;;7.25;6.10;;;5.30;99.90;;;;;;5032627;28;20250;-86
2022/04/02 10:35:23;;;;;;;5.55;5.05;;;5.30;99.90;;;;;;5033519;28;20301;-86
2022/04/02 10:38:04;;;;;;;8.43;5.57;;;5.20;99.90;;;;;;5033334;28;20317;-86
2022/04/02 10:40:34;;;;;;;6.10;5.53;;;5.10;99.90;;;;;;5033236;28;20298;-85
2022/04/02 10:43:06;;;;;;;5.38;4.65;;;5.10;99.90;;;;;;5032960;28;20284;-86
2022/04/02 10:45:37;;;;;;;6.15;5.60;;;5.00;99.90;;;;;;5032891;28;20202;-86
2022/04/02 10:48:12;;;;;;;5.85;5.20;;;5.00;99.90;;;;;;5033067;28;20313;-85
2022/04/02 10:50:42;;;;;;;6.68;5.10;;;5.10;99.90;;;;;;5032660;28;20210;-85
2022/04/02 10:53:12;;;;;;;8.43;5.65;;;5.10;99.90;;;;;;5032878;28;20245;-85
2022/04/02 10:55:45;;;;;;;15.50;5.75;;;5.10;99.90;;;;;;5032559;28;20209;-85
2022/04/02 10:58:15;;;;;;;5.00;4.50;;;5.00;99.90;;;;;;5032816;28;20241;-85
2022/04/02 11:00:46;;;;;;;5.93;5.05;;;4.90;99.90;;;;;;5032259;28;20293;-85
2022/04/02 11:03:30;;;;;;;9.73;5.50;;;4.80;99.90;;;;;;5032669;28;20234;-85
2022/04/02 11:06:00;;;;;;;5.10;4.60;;;4.80;99.90;;;;;;5032219;28;20206;-85
2022/04/02 11:08:31;;;;;;;5.85;5.28;;;4.80;99.90;;;;;;5032435;28;20237;-85
2022/04/02 11:11:15;;;;;;;6.72;5.28;;;4.70;99.90;;;;;;5032075;28;20241;-86
2022/04/02 11:13:44;;;;;;;6.53;5.60;;;4.60;99.90;;;;;;5032509;28;20202;-86
2022/04/02 11:16:15;;;;;;;5.50;5.00;;;4.60;99.90;;;;;;5032429;28;20274;-85
2022/04/02 11:21:53;;;;;;;5.82;5.25;;;4.50;99.90;;;;;;5031416;28;20302;-85
2022/04/02 11:24:23;;;;;;;5.13;4.72;;;4.40;99.90;;;;;;5032707;28;20240;-85
2022/04/02 11:26:54;;;;;;;5.45;4.95;;;4.50;99.90;;;;;;5032723;28;20274;-85
2022/04/02 11:29:25;;;;;;;6.22;5.63;;;4.40;99.90;;;;;;5033108;28;20257;-85
2022/04/02 11:31:56;;;;;;;7.65;6.38;;;4.50;99.90;;;;;;5031979;28;20286;-85
2022/04/02 11:34:29;;;;;;;6.03;5.47;;;4.50;99.90;;;;;;5032832;28;20295;-85
2022/04/02 11:37:06;;;;;;;5.10;4.63;;;4.60;99.90;;;;;;5032708;28;20214;-86
2022/04/02 11:39:39;;;;;;;7.70;5.47;;;4.80;99.90;;;;;;5031488;28;20270;-85
2022/04/02 11:42:12;;;;;;;6.72;6.00;;;4.80;99.90;;;;;;5031871;28;20248;-85
2022/04/02 11:44:50;;;;;;;5.55;5.05;;;4.80;99.90;;;;;;5032073;28;20253;-86
2022/04/02 11:47:27;;;;;;;5.65;5.05;;;4.80;99.90;;;;;;5032096;28;20226;-86
2022/04/02 11:50:06;;;;;;;11.68;5.18;;;4.90;99.90;;;;;;5031907;28;20206;-85
2022/04/02 11:52:51;;;;;;;6.05;5.43;;;4.80;99.90;;;;;;5031509;28;20234;-85
2022/04/02 11:55:20;;;;;;;7.10;5.53;;;4.80;99.90;;;;;;5030423;28;20229;-86
2022/04/02 11:58:03;;;;;;;5.80;5.20;;;4.80;99.90;;;;;;5031973;28;20230;-86
2022/04/02 12:00:33;;;;;;;9.55;7.13;;;4.90;99.90;;;;;;5031531;28;20233;-85
2022/04/02 12:03:03;;;;;;;7.10;5.32;;;4.80;99.90;;;;;;5031363;28;20219;-86
2022/04/02 12:05:41;;;;;;;5.93;5.35;;;4.60;99.90;;;;;;5031324;28;20209;-85
2022/04/02 12:08:11;;;;;;;8.52;6.10;;;4.40;99.90;;;;;;5031835;28;20301;-85
2022/04/02 12:10:47;;;;;;;5.72;5.18;;;4.50;99.90;;;;;;5031623;28;20253;-85
2022/04/02 12:13:17;;;;;;;6.25;5.65;;;4.50;99.90;;;;;;5031887;28;20234;-86
2022/04/02 12:16:00;;;;;;;5.95;5.43;;;4.60;99.90;;;;;;5031847;28;20207;-85
2022/04/02 12:18:30;;;;;;;6.95;6.07;;;4.60;99.90;;;;;;5031354;28;20241;-85
2022/04/02 12:21:08;;;;;;;6.53;5.57;;;4.70;99.90;;;;;;5031768;28;20297;-85
2022/04/02 12:23:37;;;;;;;7.85;5.72;;;4.60;99.90;;;;;;5031538;28;20302;-85
2022/04/02 12:26:06;;;;;;;8.25;5.80;;;4.60;99.90;;;;;;5031679;28;20241;-85
2022/04/02 12:28:44;;;;;;;6.88;6.28;;;4.70;99.90;;;;;;5031615;28;20260;-85
2022/04/02 12:31:13;;;;;;;7.65;6.50;;;4.70;99.90;;;;;;5031293;28;20210;-85
2022/04/02 12:33:51;;;;;;;10.38;6.68;;;4.60;99.90;;;;;;5031291;28;20250;-85
2022/04/02 12:36:30;;;;;;;12.05;7.28;;;4.60;99.90;;;;;;5032084;28;20230;-85
2022/04/02 12:39:04;;;;;;;7.55;6.85;;;4.70;99.90;;;;;;5031567;28;20214;-85
2022/04/02 12:41:34;;;;;;;6.38;5.78;;;4.70;99.90;;;;;;5031197;28;20318;-86
2022/04/02 12:44:05;;;;;;;7.05;6.30;;;4.60;99.90;;;;;;5031413;28;20210;-86
2022/04/02 12:46:33;;;;;;;6.15;5.55;;;4.60;99.90;;;;;;5031440;28;20210;-86
2022/04/02 12:49:01;;;;;;;11.15;8.40;;;4.60;99.90;;;;;;5031353;28;20214;-85
2022/04/02 12:51:31;;;;;;;6.32;5.82;;;4.50;99.90;;;;;;5034524;28;20290;-85
2022/04/02 12:54:03;;;;;;;19.00;8.07;;;4.40;99.90;;;;;;5034636;28;20242;-85
2022/04/02 12:56:34;;;;;;;6.47;5.90;;;4.40;99.90;;;;;;5034693;28;20206;-86
2022/04/02 12:59:18;;;;;;;7.90;7.10;;;4.40;99.90;;;;;;5035012;28;20292;-85
2022/04/02 13:01:48;;;;;;;6.88;6.00;;;4.50;99.90;;;;;;5034241;28;20257;-86
2022/04/02 13:04:25;;;;;;;12.52;7.10;;;4.60;99.90;;;;;;5034891;28;20202;-85
2022/04/02 13:06:57;;;;;;;6.88;6.25;;;4.60;99.90;;;;;;5034330;28;20206;-85
2022/04/02 13:09:32;;;;;;;6.72;6.07;;;4.60;99.90;;;;;;5034905;28;20225;-85
2022/04/02 13:12:02;;;;;;;7.28;6.05;;;4.50;99.90;;;;;;5034276;28;20226;-86
2022/04/02 13:14:42;;;;;;;6.90;6.20;;;4.50;99.90;;;;;;5033982;28;20291;-85
2022/04/02 13:17:12;;;;;;;8.25;6.90;;;4.50;99.90;;;;;;5034270;28;20202;-85
2022/04/02 13:22:40;;;;;;;6.55;5.93;;;4.40;99.90;;;;;;5034401;28;20277;-85
2022/04/02 13:25:13;;;;;;;8.45;7.57;;;4.30;99.90;;;;;;5034545;28;20210;-85
2022/04/02 13:28:10;;;;;;;8.40;7.55;;;4.10;99.90;;;;;;5034161;28;20214;-85
2022/04/02 13:30:40;;;;;;;8.75;7.95;;;3.80;99.90;;;;;;5036300;28;20210;-85
2022/04/02 13:33:56;;;;;;;8.32;7.43;;;3.70;99.90;;;;;;5034175;28;20317;-85